Tiempo atmosférico en la estación meteorológica de Miranda De Ebro, Burgos (512 m.)



Fecha
DESCASC
Temp. máxima en grados centígrados (hora)
DESCASC
Temp. mínima en grados centígrados (hora)
DESCASC
Temp. media en grados centígrados
DESCASC
Racha de viento máxima en m/sg (hora)
DESCASC
Velocidad máxima media en intervalos de 10 minutos(hora)
DESCASC
Precipitaciones diarias en mm
DESCASC
Precipitaciones de 00:00 a 06:00 en mm
DESCASC
Precipitaciones de 06:00 a 12:00 en mm
DESCASC
Precipitaciones de 12:00 a 18:00 en mm
DESCASC
Precipitaciones de 18:00 a 24:00 en mm
DESCASC
10-07-2020 22.1 (15:40) 15.6 (06:20) 18.9 6.94 (17:10) 4.44 (17:10) 0 0 0 0 0
09-07-2020 32.5 (16:00) 14.9 (07:00) 23.7 10 (19:00) 4.44 (19:00) 0.2 0 0 0 0.2
08-07-2020 32.8 (16:10) 11.9 (06:30) 22.3 7.78 (19:20) 3.06 (17:40) 0 0 0 0 0
07-07-2020 28.6 (17:10) 9.3 (06:10) 19 7.22 (18:30) 3.89 (18:40) 0 0 0 0 0
06-07-2020 24.5 (14:40) 14 (00:00) 19.3 9.72 (15:40) 5.83 (16:30) 0 0 0 0 0
05-07-2020 31.9 (17:00) 10.6 (00:00) 21.3 8.89 (18:00) 4.44 (18:10) 0 0 0 0 0
04-07-2020 29.5 (16:10) 7 (00:00) 18.3 7.78 (17:20) 4.17 (18:20) 0 0 0 0 0
03-07-2020 22.9 (18:00) 13.1 (07:00) 18 8.33 (17:10) 3.89 (15:50) 0 0 0 0 0
02-07-2020 20 (15:20) 14.6 (00:00) 17.3 7.5 (15:30) 3.89 (15:30) 0 0 0 0 0
01-07-2020 27.4 (15:20) 15 (00:00) 21.2 7.78 (16:10) 4.17 (16:10) 4 0 0 4 0
30-06-2020 33.6 (17:30) 12.4 (00:00) 23 8.61 (19:40) 4.17 (19:20) 0 0 0 0 0
29-06-2020 23.8 (17:30) 16.2 (00:00) 20 7.22 (18:50) 3.61 (18:40) 0 0 0 0 0
28-06-2020 30.7 (16:00) 15.5 (00:00) 23.1 8.06 (16:50) 4.17 (19:20) 0 0 0 0 0
27-06-2020 30 (16:30) 12.8 (00:00) 21.4 10 (12:10) 5 (12:30) 0 0 0 0 0
26-06-2020 30.9 (16:30) 14.8 (00:00) 22.8 9.44 (16:50) 4.72 (17:00) 0 0 0 0 0
25-06-2020 27.7 (11:00) 16.5 (00:00) 22.1 8.06 (13:40) 4.44 (13:40) 0.4 0 0 0.4 0
24-06-2020 35.5 (17:20) 16.4 (00:00) 25.9 12.22 (18:10) 5.56 (18:10) 0 0 0 0 0
23-06-2020 36.8 (18:30) 10.3 (00:00) 23.5 5.28 (19:10) 3.06 (19:10) 0 0 0 0 0
22-06-2020 29.7 (17:40) 14.4 (00:00) 22.1 6.67 (17:00) 3.06 (17:10) 0 0 0 0 0
21-06-2020 29.3 (15:40) 10.1 (00:00) 19.7 8.89 (19:50) 4.44 (20:10) 0 0 0 0 0
20-06-2020 30.3 (17:20) 9.2 (00:00) 19.7 7.5 (17:50) 3.89 (18:30) 0 0 0 0 0
19-06-2020 26.7 (15:40) 9.5 (00:00) 18.1 8.61 (18:20) 3.61 (20:50) 0 0 0 0 0
18-06-2020 23.3 (16:40) 11.5 (00:00) 17.4 7.78 (18:40) 3.61 (21:30) 2.4 1.2 1.2 0 0
17-06-2020 21.1 (15:20) 11.4 (00:00) 16.3 8.33 (18:10) 4.44 (18:10) 0 0 0 0 0
16-06-2020 23 (14:40) 12.6 (00:00) 17.8 13.06 (15:50) 5 (15:10) 12.8 0 0 11.4 1.4
15-06-2020 23.9 (17:10) 11.3 (00:00) 17.6 8.06 (20:20) 3.89 (20:00) 0 0 0 0 0

Gráficas

Temp. máximas Temp. mínimas Temp. medias Precipitaciones Rachas de viento máximas Velocidades máximas media en intervalos de 10 minutos

Datos horarios

Fecha y hora oficial Temperatura (ºC) Velocidad del viento (km/h) Dirección del viento Racha (km/h) Dirección de racha Precipitación (mm) Presión (hPa) Tendencia (hPa) Humedad (%)
2020-07-14 23:00:00 15.1 2 Norte 15 Nordeste 0 -- -- 68
2020-07-14 22:00:00 16.9 8 Nordeste 19 Nordeste 0 -- -- 55
2020-07-14 21:00:00 19.3 9 Nordeste 29 Nordeste 0 -- -- 42
2020-07-14 20:00:00 21 14 Nordeste 29 Norte 0 -- -- 38
2020-07-14 19:00:00 23.2 7 Norte 31 Nordeste 0 -- -- 42
2020-07-14 18:00:00 23.8 12 Nordeste 31 Nordeste 0 -- -- 45
2020-07-14 17:00:00 23.9 14 Nordeste 27 Nordeste 0 -- -- 45
2020-07-14 16:00:00 25 9 Norte 24 Nordeste 0 -- -- 41
2020-07-14 15:00:00 23.8 9 Nordeste 27 Este 0 -- -- 44
2020-07-14 14:00:00 23.2 12 Nordeste 26 Nordeste 0 -- -- 47
2020-07-14 13:00:00 22.8 11 Nordeste 26 Nordeste 0 -- -- 42
2020-07-14 12:00:00 21.9 8 Este 22 Nordeste 0 -- -- 42
2020-07-14 11:00:00 20.3 4 Noroeste 9 Noroeste 0 -- -- 58
2020-07-14 10:00:00 19.5 3 Noroeste 6 Oeste 0 -- -- 62
2020-07-14 09:00:00 16.2 3 Noroeste 6 Noroeste 0 -- -- 69
2020-07-14 08:00:00 10.9 3 Noroeste 7 Sudoeste 0 -- -- 89
2020-07-14 07:00:00 10.1 4 Oeste 7 Oeste 0 -- -- 88
2020-07-14 06:00:00 10.2 0 Calma 5 Oeste 0 -- -- 89
2020-07-14 05:00:00 10.5 4 Oeste 6 Oeste 0 -- -- 88
2020-07-14 04:00:00 10.9 0 Calma 8 Oeste 0 -- -- 87
2020-07-14 03:00:00 11.7 2 Noroeste 8 Sudoeste 0 -- -- 84
2020-07-14 02:00:00 13.8 5 Oeste 11 Oeste 0 -- -- 79
2020-07-14 01:00:00 14 3 Norte 8 Norte 0 -- -- 81
2020-07-14 00:00:00 15 0 Calma 10 Noroeste 0 -- -- 74
2020-07-13 23:00:00 15.6 3 Noroeste 8 Noroeste 0 -- -- 67
2020-07-13 22:00:00 18 4 Norte 16 Nordeste 0 -- -- 57
2020-07-13 21:00:00 20.9 8 Nordeste 26 Nordeste 0 -- -- 49
2020-07-13 20:00:00 23.4 8 Norte 26 Este 0 -- -- 43
2020-07-13 19:00:00 24.7 10 Nordeste 27 Nordeste 0 -- -- 41
2020-07-13 18:00:00 25.9 8 Norte 28 Nordeste 0 -- -- 37
2020-07-13 17:00:00 26.6 8 Norte 26 Nordeste 0 -- -- 40
2020-07-13 16:00:00 26.7 9 Norte 25 Norte 0 -- -- 37
2020-07-13 15:00:00 25.7 8 Norte 26 Nordeste 0 -- -- 46
2020-07-13 14:00:00 25.3 8 Nordeste 24 Norte 0 -- -- 49
2020-07-13 13:00:00 25 8 Norte 19 Noroeste 0 -- -- 51
2020-07-13 12:00:00 23.2 4 Sudeste 9 Sudeste 0 -- -- 59
2020-07-13 11:00:00 22.4 3 Nordeste 7 Norte 0 -- -- 59
2020-07-13 10:00:00 21.4 2 Norte 6 Norte 0 -- -- 65
2020-07-13 09:00:00 18.5 2 Noroeste 5 Oeste 0 -- -- 73
2020-07-13 08:00:00 14.2 4 Oeste 6 Oeste 0 -- -- 92
2020-07-13 07:00:00 13.5 2 Oeste 5 Oeste 0 -- -- 94
2020-07-13 06:00:00 13.8 0 Calma 5 Oeste 0 -- -- 94
2020-07-13 05:00:00 13.9 3 Oeste 5 Sudoeste 0 -- -- 93
2020-07-13 04:00:00 14 3 Oeste 5 Oeste 0 -- -- 92
2020-07-13 03:00:00 14.9 3 Norte 11 Norte 0 -- -- 87
2020-07-13 02:00:00 14.9 3 Norte 7 Norte 0 -- -- 93
2020-07-13 01:00:00 16.2 4 Norte 14 Norte 0 -- -- 88
2020-07-13 00:00:00 16.9 3 Norte 10 Norte 0 -- -- 96
2020-07-12 23:00:00 17.2 2 Sur 8 Oeste 1.2 -- -- 95
2020-07-12 22:00:00 17.3 6 Oeste 31 Norte 7.8 -- -- 95
2020-07-12 21:00:00 21.8 10 Norte 21 Noroeste 0 -- -- 68
2020-07-12 20:00:00 23.5 11 Nordeste 24 Nordeste 0 -- -- 65
2020-07-12 19:00:00 25.3 10 Nordeste 28 Nordeste 0 -- -- 61
2020-07-12 18:00:00 27.8 16 Nordeste 31 Nordeste 0 -- -- 57
2020-07-12 17:00:00 30.5 5 Sur 14 Sudeste 0 -- -- 50
2020-07-12 16:00:00 29.1 5 Sur 24 Sudeste 0 -- -- 51
2020-07-12 15:00:00 28.7 14 Sudeste 29 Sudeste 0 -- -- 54
2020-07-12 14:00:00 28.1 7 Sudeste 22 Nordeste 0 -- -- 54
2020-07-12 13:00:00 24.9 5 Este 21 Este 0 -- -- 61
2020-07-12 12:00:00 22.4 8 Sudeste 19 Nordeste 0 -- -- 67
2020-07-12 11:00:00 21.3 2 Norte 13 Norte 0 -- -- 70
2020-07-12 10:00:00 17.1 5 Oeste 10 Oeste 0 -- -- 86
2020-07-12 09:00:00 16.1 4 Noroeste 12 Sudeste 0 -- -- 88
2020-07-12 08:00:00 15.5 5 Este 19 Este 0.4 -- -- 88
2020-07-12 07:00:00 15.7 6 Nordeste 14 Nordeste 0.4 -- -- 86
2020-07-12 06:00:00 14.9 3 Sudoeste 10 Noroeste 0 -- -- 87
2020-07-12 05:00:00 14.9 5 Oeste 19 Oeste 0 -- -- 86
2020-07-12 04:00:00 15.6 4 Oeste 12 Sudoeste 0 -- -- 85
2020-07-12 03:00:00 15.4 0 Calma 4 Norte 0 -- -- 88
2020-07-12 02:00:00 16.3 0 Calma 8 Norte 0 -- -- 85
2020-07-12 01:00:00 16.8 4 Noroeste 10 Noroeste 0 -- -- 82
2020-07-12 00:00:00 17.3 3 Noroeste 9 Norte 0 -- -- 79
2020-07-11 23:00:00 18.4 3 Norte 9 Norte 0 -- -- 75
2020-07-11 22:00:00 19.6 3 Norte 17 Norte 0 -- -- 69
2020-07-11 21:00:00 22.1 5 Norte 19 Nordeste 0 -- -- 59
2020-07-11 20:00:00 24.5 6 Norte 20 Nordeste 0 -- -- 53
2020-07-11 19:00:00 26.1 6 Norte 21 Nordeste 0 -- -- 51
2020-07-11 18:00:00 26.4 9 Nordeste 24 Nordeste 0 -- -- 51
2020-07-11 17:00:00 26.8 10 Nordeste 27 Este 0 -- -- 48
2020-07-11 16:00:00 25.6 12 Este 26 Este 0 -- -- 49
2020-07-11 15:00:00 25 9 Norte 26 Nordeste 0 -- -- 51
2020-07-11 14:00:00 23.5 10 Nordeste 23 Nordeste 0 -- -- 51
2020-07-11 13:00:00 22.9 7 Nordeste 24 Nordeste 0 -- -- 54
2020-07-11 12:00:00 21.8 8 Nordeste 17 Nordeste 0 -- -- 57
2020-07-11 11:00:00 19.1 5 Nordeste 14 Nordeste 0 -- -- 65
2020-07-11 10:00:00 17.5 6 Nordeste 12 Norte 0 -- -- 72
2020-07-11 09:00:00 17.1 2 Norte 9 Norte 0 -- -- 74
2020-07-11 08:00:00 16.3 3 Norte 9 Norte 0 -- -- 78
2020-07-11 07:00:00 15.3 5 Norte 10 Norte 0 -- -- 81
2020-07-11 06:00:00 15.2 4 Norte 8 Noroeste 0 -- -- 80
2020-07-11 05:00:00 15.3 4 Noroeste 9 Norte 0 -- -- 79
2020-07-11 04:00:00 15.7 5 Norte 12 Norte 0 -- -- 77
2020-07-11 03:00:00 15.9 6 Norte 10 Norte 0 -- -- 79
2020-07-11 02:00:00 16.4 0 Calma 9 Norte 0 -- -- 79
2020-07-11 01:00:00 16.5 6 Norte 12 Norte 0 -- -- 77
2020-07-11 00:00:00 16.8 5 Norte 13 Noroeste 0 -- -- 81
2020-07-10 23:00:00 17.1 4 Nordeste 13 Norte 0 -- -- 81
2020-07-10 22:00:00 17.9 4 Norte 16 Norte 0 -- -- 77
2020-07-10 21:00:00 18.4 5 Norte 15 Norte 0 -- -- 76
2020-07-10 20:00:00 19.1 9 Norte 17 Noroeste 0 -- -- 74
2020-07-10 19:00:00 19.5 11 Noroeste 22 Norte 0 -- -- 73
2020-07-10 18:00:00 19.8 10 Norte 25 Noroeste 0 -- -- 72
2020-07-10 17:00:00 20.4 15 Norte 23 Norte 0 -- -- 70
2020-07-10 16:00:00 21.6 7 Norte 19 Norte 0 -- -- 66
2020-07-10 15:00:00 20.2 9 Nordeste 20 Norte 0 -- -- 74
2020-07-10 14:00:00 20.2 10 Norte 22 Norte 0 -- -- 74
2020-07-10 13:00:00 19.6 12 Norte 18 Norte 0 -- -- 76
2020-07-10 12:00:00 20.1 9 Norte 19 Norte 0 -- -- 73
2020-07-10 11:00:00 20.4 9 Nordeste 19 Este 0 -- -- 72
2020-07-10 10:00:00 19.7 2 Norte 10 Norte 0 -- -- 74
2020-07-10 09:00:00 17.7 3 Norte 7 Nordeste 0 -- -- 79
2020-07-10 08:00:00 16.5 4 Nordeste 8 Nordeste 0 -- -- 85
2020-07-10 07:00:00 15.8 0 Calma 5 Nordeste 0 -- -- 90
2020-07-10 06:00:00 15.8 0 Calma 6 Sudeste 0 -- -- 88
2020-07-10 05:00:00 15.9 2 Nordeste 12 Nordeste 0 -- -- 87
2020-07-10 04:00:00 16.8 5 Norte 14 Nordeste 0 -- -- 84
2020-07-10 03:00:00 16.9 3 Norte 11 Norte 0 -- -- 84
2020-07-10 02:00:00 16.9 0 Calma 8 Noroeste 0 -- -- 86
2020-07-10 01:00:00 18.1 2 Norte 10 Nordeste 0 -- -- 85
2020-07-10 00:00:00 18.9 3 Norte 14 Nordeste 0 -- -- 79
2020-07-09 23:00:00 19.7 7 Este 13 Este 0 -- -- 76
2020-07-09 22:00:00 20.6 3 Norte 24 Nordeste 0 -- -- 75
2020-07-09 21:00:00 22.3 8 Nordeste 27 Este 0 -- -- 70
2020-07-09 20:00:00 20.5 6 Oeste 24 Sur 0.2 -- -- 79
2020-07-09 19:00:00 24.8 16 Sur 36 Sudoeste 0 -- -- 46
2020-07-09 18:00:00 30 11 Nordeste 32 Nordeste 0 -- -- 50
2020-07-09 17:00:00 31.1 10 Norte 24 Nordeste 0 -- -- 49
2020-07-09 16:00:00 32.5 7 Norte 22 Norte 0 -- -- 44
2020-07-09 15:00:00 31.6 6 Nordeste 22 Este 0 -- -- 43
2020-07-09 14:00:00 31 9 Este 21 Este 0 -- -- 43
2020-07-09 13:00:00 28.9 6 Norte 20 Nordeste 0 -- -- 45
2020-07-09 12:00:00 26.3 6 Nordeste 20 Este 0 -- -- 51
2020-07-09 11:00:00 25.8 5 Sudeste 14 Sudeste 0 -- -- 51
2020-07-09 10:00:00 23.9 4 Este 8 Este 0 -- -- 58
2020-07-09 09:00:00 21 3 Sur 12 Sudoeste 0 -- -- 69
2020-07-09 08:00:00 15.9 5 Oeste 9 Sudoeste 0 -- -- 87
2020-07-09 07:00:00 14.9 3 Noroeste 6 Sudoeste 0 -- -- 89
2020-07-09 06:00:00 15.5 3 Oeste 8 Oeste 0 -- -- 88
2020-07-09 05:00:00 15.7 0 Calma 9 Oeste 0 -- -- 86
2020-07-09 04:00:00 16.9 0 Calma 6 Noroeste 0 -- -- 82
2020-07-09 03:00:00 18.3 0 Calma 9 Este 0 -- -- 78
2020-07-09 02:00:00 18.6 0 Calma 8 Nordeste 0 -- -- 78
2020-07-09 01:00:00 20.4 4 Sudeste 8 Oeste 0 -- -- 72
2020-07-09 00:00:00 21.2 6 Nordeste 15 Nordeste 0 -- -- 69
2020-07-08 23:00:00 21.7 2 Sur 14 Nordeste 0 -- -- 67
2020-07-08 22:00:00 23.4 7 Este 17 Nordeste 0 -- -- 63
2020-07-08 21:00:00 25.5 7 Nordeste 22 Nordeste 0 -- -- 59
2020-07-08 20:00:00 27.9 7 Nordeste 28 Nordeste 0 -- -- 53
2020-07-08 19:00:00 29.5 9 Nordeste 21 Nordeste 0 -- -- 51
2020-07-08 18:00:00 31.3 10 Nordeste 25 Nordeste 0 -- -- 44
2020-07-08 17:00:00 32.6 7 Este 19 Este 0 -- -- 41
2020-07-08 16:00:00 32 4 Sudoeste 10 Sur 0 -- -- 41
2020-07-08 15:00:00 29.6 4 Este 14 Sur 0 -- -- 45
2020-07-08 14:00:00 28.7 4 Sur 15 Sudeste 0 -- -- 46
2020-07-08 13:00:00 25.1 5 Sudoeste 13 Oeste 0 -- -- 50
2020-07-08 12:00:00 24.4 3 Este 11 Este 0 -- -- 52
2020-07-08 11:00:00 22.1 3 Norte 10 Norte 0 -- -- 59
2020-07-08 10:00:00 20.2 3 Noroeste 9 Norte 0 -- -- 65
2020-07-08 09:00:00 17.3 4 Noroeste 6 Noroeste 0 -- -- 74
2020-07-08 08:00:00 13.2 3 Norte 8 Sudoeste 0 -- -- 90
2020-07-08 07:00:00 12.2 4 Oeste 8 Oeste 0 -- -- 91
2020-07-08 06:00:00 12.5 4 Oeste 9 Sudoeste 0 -- -- 89
2020-07-08 05:00:00 12.6 4 Oeste 8 Sudoeste 0 -- -- 91
2020-07-08 04:00:00 13 2 Noroeste 6 Oeste 0 -- -- 88
2020-07-08 03:00:00 14.1 2 Oeste 6 Oeste 0 -- -- 86
2020-07-08 02:00:00 15.2 3 Oeste 6 Sudoeste 0 -- -- 84
2020-07-08 01:00:00 15.7 0 Calma 8 Nordeste 0 -- -- 84
2020-07-08 00:00:00 17.3 5 Nordeste 12 Este 0 -- -- 79
2020-07-07 23:00:00 18.3 5 Nordeste 13 Nordeste 0 -- -- 73
2020-07-07 22:00:00 20 8 Nordeste 22 Nordeste 0 -- -- 67
2020-07-07 21:00:00 22.7 11 Nordeste 22 Nordeste 0 -- -- 58
2020-07-07 20:00:00 25.6 11 Nordeste 24 Norte 0 -- -- 48
2020-07-07 19:00:00 27.4 7 Nordeste 26 Nordeste 0 -- -- 43
2020-07-07 18:00:00 28.3 9 Nordeste 24 Este 0 -- -- 42
2020-07-07 17:00:00 28.3 10 Este 25 Sudeste 0 -- -- 40
2020-07-07 16:00:00 27.5 10 Este 23 Nordeste 0 -- -- 38
2020-07-07 15:00:00 26 10 Este 24 Este 0 -- -- 40
2020-07-07 14:00:00 24.3 10 Nordeste 22 Este 0 -- -- 45
2020-07-07 13:00:00 22.8 9 Nordeste 22 Este 0 -- -- 49
2020-07-07 12:00:00 22.1 4 Norte 17 Nordeste 0 -- -- 50
2020-07-07 11:00:00 18.7 5 Norte 17 Nordeste 0 -- -- 58
2020-07-07 10:00:00 18 6 Norte 17 Norte 0 -- -- 58
2020-07-07 09:00:00 16.7 6 Norte 11 Noroeste 0 -- -- 63
2020-07-07 08:00:00 11.1 4 Oeste 10 Oeste 0 -- -- 84
2020-07-07 07:00:00 10.2 6 Oeste 10 Sudoeste 0 -- -- 87
2020-07-07 06:00:00 9.4 5 Noroeste 7 Norte 0 -- -- 90
2020-07-07 05:00:00 10.4 2 Noroeste 4 Noroeste 0 -- -- 90
2020-07-07 04:00:00 10.5 4 Noroeste 10 Nordeste 0 -- -- 87
2020-07-07 03:00:00 11.7 4 Nordeste 10 Nordeste 0 -- -- 85
2020-07-07 02:00:00 12.8 4 Norte 17 Nordeste 0 -- -- 82
2020-07-07 01:00:00 12.3 2 Nordeste 11 Nordeste 0 -- -- 86
2020-07-07 00:00:00 14 5 Nordeste 15 Nordeste 0 -- -- 82
2020-07-06 23:00:00 15 7 Nordeste 14 Este 0 -- -- 77
2020-07-06 22:00:00 16.4 3 Norte 14 Noroeste 0 -- -- 73
2020-07-06 21:00:00 17.9 5 Norte 19 Norte 0 -- -- 72
2020-07-06 20:00:00 20 10 Norte 24 Norte 0 -- -- 65
2020-07-06 19:00:00 20.6 8 Norte 26 Norte 0 -- -- 65
2020-07-06 18:00:00 20.4 13 Norte 30 Norte 0 -- -- 66
2020-07-06 17:00:00 22.6 14 Norte 33 Norte 0 -- -- 60
2020-07-06 16:00:00 21.2 17 Norte 35 Norte 0 -- -- 64
2020-07-06 15:00:00 23.5 14 Norte 31 Norte 0 -- -- 58
2020-07-06 14:00:00 23.4 10 Norte 27 Noroeste 0 -- -- 55
2020-07-06 13:00:00 22.6 8 Norte 23 Norte 0 -- -- 63
2020-07-06 12:00:00 21.9 8 Norte 23 Norte 0 -- -- 67
2020-07-06 11:00:00 20.9 6 Norte 16 Nordeste 0 -- -- 71
2020-07-06 10:00:00 19.6 6 Norte 14 Noroeste 0 -- -- 75
2020-07-06 09:00:00 18.8 6 Norte 14 Noroeste 0 -- -- 79
2020-07-06 08:00:00 17.6 5 Noroeste 11 Noroeste 0 -- -- 82
2020-07-06 07:00:00 17.2 4 Norte 12 Oeste 0 -- -- 82
2020-07-06 06:00:00 17.1 5 Noroeste 10 Noroeste 0 -- -- 82
2020-07-06 05:00:00 17.3 4 Norte 11 Nordeste 0 -- -- 80
2020-07-06 04:00:00 17.2 3 Este 8 Este 0 -- -- 82
2020-07-06 03:00:00 17.1 3 Nordeste 8 Nordeste 0 -- -- 81
2020-07-06 02:00:00 15.5 2 Nordeste 7 Norte 0 -- -- 81
2020-07-06 01:00:00 16.5 5 Norte 13 Nordeste 0 -- -- 73
2020-07-06 00:00:00 17.7 3 Norte 8 Norte 0 -- -- 65
2020-07-05 23:00:00 19.1 3 Norte 18 Nordeste 0 -- -- 61
2020-07-05 22:00:00 21.8 10 Nordeste 21 Nordeste 0 -- -- 56
2020-07-05 21:00:00 24.4 8 Nordeste 26 Nordeste 0 -- -- 51
2020-07-05 20:00:00 26.9 8 Nordeste 26 Nordeste 0 -- -- 47
2020-07-05 19:00:00 28.5 11 Nordeste 31 Este 0 -- -- 44
2020-07-05 18:00:00 30.4 15 Nordeste 32 Nordeste 0 -- -- 41
2020-07-05 17:00:00 31.9 9 Nordeste 29 Este 0 -- -- 39
2020-07-05 16:00:00 30.7 12 Nordeste 25 Nordeste 0 -- -- 40
2020-07-05 15:00:00 31.3 10 Este 20 Sudeste 0 -- -- 38
2020-07-05 14:00:00 30.6 8 Este 22 Este 0 -- -- 38
2020-07-05 13:00:00 28.4 5 Este 14 Sudeste 0 -- -- 40
2020-07-05 12:00:00 26.6 5 Este 11 Sudeste 0 -- -- 39
2020-07-05 11:00:00 23.8 3 Este 8 Norte 0 -- -- 43
2020-07-05 10:00:00 21.5 2 Noroeste 6 Noroeste 0 -- -- 50
2020-07-05 09:00:00 18.5 3 Oeste 6 Oeste 0 -- -- 59
2020-07-05 08:00:00 12.9 3 Norte 4 Norte 0 -- -- 83
2020-07-05 07:00:00 10.8 0 Calma 5 Oeste 0 -- -- 89
2020-07-05 06:00:00 10.9 3 Norte 4 Noroeste 0 -- -- 88
2020-07-05 05:00:00 11.6 3 Noroeste 5 Oeste 0 -- -- 85
2020-07-05 04:00:00 12.3 2 Norte 4 Noroeste 0 -- -- 82
2020-07-05 03:00:00 13.4 0 Calma 6 Oeste 0 -- -- 78
2020-07-05 02:00:00 15.3 3 Noroeste 10 Oeste 0 -- -- 71
2020-07-05 01:00:00 15.7 0 Calma 4 Sudeste 0 -- -- 71
2020-07-05 00:00:00 17.8 3 Norte 10 Nordeste 0 -- -- 61
2020-07-04 23:00:00 19 3 Norte 8 Nordeste 0 -- -- 57
2020-07-04 22:00:00 21.6 6 Este 20 Nordeste 0 -- -- 50
2020-07-04 21:00:00 23.7 12 Nordeste 24 Norte 0 -- -- 44
2020-07-04 20:00:00 26.3 10 Nordeste 28 Nordeste 0 -- -- 42
2020-07-04 19:00:00 27.3 13 Nordeste 26 Nordeste 0 -- -- 39
2020-07-04 18:00:00 28.1 14 Nordeste 28 Nordeste 0 -- -- 36
2020-07-04 17:00:00 28.3 10 Nordeste 23 Nordeste 0 -- -- 32
2020-07-04 16:00:00 29.3 8 Este 22 Este 0 -- -- 30
2020-07-04 15:00:00 28.2 5 Norte 18 Nordeste 0 -- -- 34
2020-07-04 14:00:00 26.8 4 Norte 12 Este 0 -- -- 38
2020-07-04 13:00:00 24.3 4 Sudeste 13 Nordeste 0 -- -- 40
2020-07-04 12:00:00 23 6 Este 12 Este 0 -- -- 45
2020-07-04 11:00:00 19.7 4 Nordeste 13 Norte 0 -- -- 58
2020-07-04 10:00:00 17.4 3 Noroeste 9 Noroeste 0 -- -- 66
2020-07-04 09:00:00 14.4 3 Noroeste 6 Oeste 0 -- -- 72
2020-07-04 08:00:00 9.1 3 Noroeste 5 Noroeste 0 -- -- 94
2020-07-04 07:00:00 7.2 0 Calma 5 Norte 0 -- -- 94
2020-07-04 06:00:00 7.4 2 Noroeste 5 Oeste 0 -- -- 94
2020-07-04 05:00:00 8.1 2 Oeste 5 Oeste 0 -- -- 94
2020-07-04 04:00:00 8.8 3 Oeste 6 Oeste 0 -- -- 93
2020-07-04 03:00:00 9.8 3 Oeste 6 Sudoeste 0 -- -- 90
2020-07-04 02:00:00 10.5 2 Sudoeste 6 Noroeste 0 -- -- 90
2020-07-04 01:00:00 11.7 4 Oeste 5 Oeste 0 -- -- 86
2020-07-04 00:00:00 13.3 0 Calma 4 Sur 0 -- -- 81
2020-07-03 23:00:00 14.2 4 Norte 16 Nordeste 0 -- -- 78
2020-07-03 22:00:00 16.3 9 Nordeste 21 Nordeste 0 -- -- 68
2020-07-03 21:00:00 18.5 6 Norte 24 Nordeste 0 -- -- 59
2020-07-03 20:00:00 20.7 10 Nordeste 24 Nordeste 0 -- -- 54
2020-07-03 19:00:00 22.1 11 Este 26 Nordeste 0 -- -- 52
2020-07-03 18:00:00 22.9 8 Nordeste 30 Nordeste 0 -- -- 48
2020-07-03 17:00:00 21.8 13 Nordeste 27 Nordeste 0 -- -- 51
2020-07-03 16:00:00 22 9 Nordeste 28 Nordeste 0 -- -- 49
2020-07-03 15:00:00 21.9 11 Nordeste 26 Nordeste 0 -- -- 51
2020-07-03 14:00:00 21.2 5 Norte 16 Nordeste 0 -- -- 50
2020-07-03 13:00:00 19.2 5 Nordeste 14 Nordeste 0 -- -- 54
2020-07-03 12:00:00 18.8 4 Norte 14 Nordeste 0 -- -- 56
2020-07-03 11:00:00 17.6 9 Noroeste 15 Noroeste 0 -- -- 58
2020-07-03 10:00:00 17.1 8 Nordeste 15 Nordeste 0 -- -- 62
2020-07-03 09:00:00 15.5 6 Nordeste 13 Nordeste 0 -- -- 70
2020-07-03 08:00:00 14.2 0 Calma 6 Noroeste 0 -- -- 78
2020-07-03 07:00:00 13.1 3 Noroeste 5 Noroeste 0 -- -- 81
2020-07-03 06:00:00 13.8 2 Norte 12 Norte 0 -- -- 81
2020-07-03 05:00:00 13.9 6 Norte 13 Norte 0 -- -- 80
2020-07-03 04:00:00 14.1 4 Noroeste 10 Norte 0 -- -- 79
2020-07-03 03:00:00 14.2 3 Norte 10 Noroeste 0 -- -- 78
2020-07-03 02:00:00 14.3 7 Norte 12 Norte 0 -- -- 75
2020-07-03 01:00:00 14.5 5 Noroeste 13 Norte 0 -- -- 77
2020-07-03 00:00:00 14.6 8 Norte 14 Norte 0 -- -- 77
2020-07-02 23:00:00 14.8 8 Noroeste 17 Norte 0 -- -- 76
2020-07-02 22:00:00 15.2 6 Norte 14 Nordeste 0 -- -- 74
2020-07-02 21:00:00 15.7 5 Norte 22 Nordeste 0 -- -- 71
2020-07-02 20:00:00 15.9 7 Nordeste 21 Nordeste 0 -- -- 68
2020-07-02 19:00:00 16.6 7 Nordeste 18 Nordeste 0 -- -- 73
2020-07-02 18:00:00 17.6 6 Norte 26 Nordeste 0 -- -- 70
2020-07-02 17:00:00 18.6 13 Nordeste 24 Nordeste 0 -- -- 68
2020-07-02 16:00:00 18.8 9 Nordeste 27 Nordeste 0 -- -- 70
2020-07-02 15:00:00 19.3 9 Nordeste 21 Nordeste 0 -- -- 69
2020-07-02 14:00:00 18.7 8 Nordeste 17 Nordeste 0 -- -- 70
2020-07-02 13:00:00 18.5 9 Nordeste 16 Nordeste 0 -- -- 71
2020-07-02 12:00:00 18.8 5 Norte 15 Norte 0 -- -- 72
2020-07-02 11:00:00 18.6 6 Nordeste 16 Nordeste 0 -- -- 74
2020-07-02 10:00:00 17.3 3 Norte 12 Nordeste 0 -- -- 80
2020-07-02 09:00:00 16 5 Nordeste 14 Nordeste 0 -- -- 83
2020-07-02 08:00:00 15.5 6 Nordeste 13 Nordeste 0 -- -- 86
2020-07-02 07:00:00 15.8 3 Norte 12 Nordeste 0 -- -- 86
2020-07-02 06:00:00 15.8 5 Nordeste 14 Nordeste 0 -- -- 86
2020-07-02 05:00:00 15.9 4 Nordeste 15 Nordeste 0 -- -- 86
2020-07-02 04:00:00 15.9 10 Nordeste 18 Este 0 -- -- 87
2020-07-02 03:00:00 16.5 4 Nordeste 16 Nordeste 0 -- -- 86
2020-07-02 02:00:00 16.9 8 Nordeste 14 Nordeste 0 -- -- 84
2020-07-02 01:00:00 17.5 6 Nordeste 15 Nordeste 0 -- -- 83
2020-07-02 00:00:00 17.8 5 Nordeste 14 Nordeste 0 -- -- 83
2020-07-01 23:00:00 18.2 8 Nordeste 13 Nordeste 0 -- -- 84
2020-07-01 22:00:00 18.4 5 Nordeste 17 Nordeste 0 -- -- 83
2020-07-01 21:00:00 18.8 7 Nordeste 18 Nordeste 0 -- -- 82
2020-07-01 20:00:00 19.6 5 Norte 22 Nordeste 0 -- -- 81
2020-07-01 19:00:00 20 6 Norte 25 Nordeste 0 -- -- 79
2020-07-01 18:00:00 21.1 9 Nordeste 26 Nordeste 4 -- -- 77
2020-07-01 17:00:00 23.4 13 Nordeste 28 Nordeste 0 -- -- 62
2020-07-01 16:00:00 25.5 14 Nordeste 28 Nordeste 0 -- -- 59
2020-07-01 15:00:00 26.8 10 Nordeste 25 Nordeste 0 -- -- 55
2020-07-01 14:00:00 26.1 10 Nordeste 26 Nordeste 0 -- -- 57
2020-07-01 13:00:00 26.3 6 Nordeste 22 Nordeste 0 -- -- 56
2020-07-01 12:00:00 26.8 8 Nordeste 18 Nordeste 0 -- -- 54
2020-07-01 11:00:00 24.4 4 Sur 12 Este 0 -- -- 56
2020-07-01 10:00:00 23.8 4 Sudeste 12 Sudeste 0 -- -- 59
2020-07-01 09:00:00 20.6 3 Noroeste 6 Noroeste 0 -- -- 65
2020-07-01 08:00:00 17 4 Noroeste 6 Noroeste 0 -- -- 81
2020-07-01 07:00:00 15.8 0 Calma 8 Este 0 -- -- 81
2020-07-01 06:00:00 15.5 0 Calma 5 Oeste 0 -- -- 91
2020-07-01 05:00:00 16 2 Oeste 6 Oeste 0 -- -- 88
2020-07-01 04:00:00 16.3 2 Noroeste 5 Nordeste 0 -- -- 85
2020-07-01 03:00:00 17.3 0 Calma 9 Este 0 -- -- 78
2020-07-01 02:00:00 18.4 0 Calma 17 Oeste 0 -- -- 83
2020-07-01 01:00:00 19.7 14 Este 27 Nordeste 0 -- -- 76
2020-07-01 00:00:00 20.9 4 Nordeste 12 Este 0 -- -- 68
2020-06-30 23:00:00 22.1 5 Nordeste 13 Nordeste 0 -- -- 66
2020-06-30 22:00:00 23.8 8 Nordeste 23 Nordeste 0 -- -- 62
2020-06-30 21:00:00 27.3 9 Nordeste 25 Este 0 -- -- 56
2020-06-30 20:00:00 29.6 12 Nordeste 31 Nordeste 0 -- -- 48
2020-06-30 19:00:00 31.1 13 Nordeste 28 Nordeste 0 -- -- 42
2020-06-30 18:00:00 32.7 9 Nordeste 22 Nordeste 0 -- -- 36
2020-06-30 17:00:00 33.4 6 Este 16 Norte 0 -- -- 34
2020-06-30 16:00:00 33 4 Norte 13 Sudeste 0 -- -- 33
2020-06-30 15:00:00 31.1 4 Sur 15 Sudeste 0 -- -- 33
2020-06-30 14:00:00 29.2 5 Este 15 Sudeste 0 -- -- 36
2020-06-30 13:00:00 27.3 3 Sudoeste 8 Sur 0 -- -- 31
2020-06-30 12:00:00 25.5 4 Sur 10 Sudeste 0 -- -- 40
2020-06-30 11:00:00 22.6 4 Este 8 Este 0 -- -- 54
2020-06-30 10:00:00 20.2 3 Norte 8 Norte 0 -- -- 66
2020-06-30 09:00:00 17.5 3 Nordeste 8 Noroeste 0 -- -- 75
2020-06-30 08:00:00 13.8 5 Noroeste 9 Oeste 0 -- -- 88
2020-06-30 07:00:00 12.9 2 Norte 5 Noroeste 0 -- -- 92
2020-06-30 06:00:00 13.4 2 Norte 5 Noroeste 0 -- -- 92
2020-06-30 05:00:00 13.3 0 Calma 4 Noroeste 0 -- -- 93
2020-06-30 04:00:00 12.4 0 Calma 3 Norte 0 -- -- 92
2020-06-30 03:00:00 13.3 0 Calma 6 Noroeste 0 -- -- 91
2020-06-30 02:00:00 14.6 2 Este 6 Nordeste 0 -- -- 87
2020-06-30 01:00:00 15.5 4 Nordeste 11 Nordeste 0 -- -- 84
2020-06-30 00:00:00 16.3 5 Nordeste 10 Nordeste 0 -- -- 81
2020-06-29 23:00:00 16.5 4 Nordeste 13 Este 0 -- -- 81
2020-06-29 22:00:00 17.5 7 Nordeste 20 Nordeste 0 -- -- 77
2020-06-29 21:00:00 19.5 8 Este 22 Nordeste 0 -- -- 72
2020-06-29 20:00:00 21.5 10 Nordeste 23 Este 0 -- -- 66
2020-06-29 19:00:00 22.8 8 Nordeste 26 Nordeste 0 -- -- 61
2020-06-29 18:00:00 23.2 12 Nordeste 24 Nordeste 0 -- -- 62
2020-06-29 17:00:00 22.8 9 Nordeste 25 Este 0 -- -- 65
2020-06-29 16:00:00 22.9 10 Nordeste 21 Este 0 -- -- 63
2020-06-29 15:00:00 23 6 Norte 18 Nordeste 0 -- -- 62
2020-06-29 14:00:00 21.8 8 Nordeste 20 Nordeste 0 -- -- 64
2020-06-29 13:00:00 22.8 6 Norte 14 Nordeste 0 -- -- 62
2020-06-29 12:00:00 21 6 Nordeste 16 Nordeste 0 -- -- 68
2020-06-29 11:00:00 18.4 8 Nordeste 15 Nordeste 0 -- -- 77
2020-06-29 10:00:00 18 7 Nordeste 14 Nordeste 0 -- -- 78
2020-06-29 09:00:00 17.5 6 Nordeste 17 Este 0 -- -- 80
2020-06-29 08:00:00 17.1 9 Nordeste 21 Nordeste 0 -- -- 83
2020-06-29 07:00:00 17.5 9 Nordeste 17 Nordeste 0 -- -- 83
2020-06-29 06:00:00 17.9 5 Nordeste 13 Nordeste 0 -- -- 84
2020-06-29 05:00:00 18.1 4 Nordeste 17 Nordeste 0 -- -- 83
2020-06-29 04:00:00 18.3 8 Nordeste 19 Nordeste 0 -- -- 80
2020-06-29 03:00:00 18.7 6 Nordeste 14 Este 0 -- -- 80
2020-06-29 02:00:00 18.8 6 Este 18 Este 0 -- -- 79
2020-06-29 01:00:00 19.1 8 Este 18 Este 0 -- -- 77
2020-06-29 00:00:00 19.4 8 Nordeste 19 Nordeste 0 -- -- 76
2020-06-28 23:00:00 19.5 12 Nordeste 22 Este 0 -- -- 74
2020-06-28 22:00:00 20.1 9 Nordeste 23 Nordeste 0 -- -- 72
2020-06-28 21:00:00 22.2 8 Norte 26 Nordeste 0 -- -- 65
2020-06-28 20:00:00 25.1 8 Nordeste 29 Nordeste 0 -- -- 58
2020-06-28 19:00:00 26.7 14 Nordeste 27 Nordeste 0 -- -- 55
2020-06-28 18:00:00 28 9 Nordeste 29 Nordeste 0 -- -- 51
2020-06-28 17:00:00 28.5 12 Nordeste 29 Nordeste 0 -- -- 49
2020-06-28 16:00:00 30.7 6 Nordeste 20 Norte 0 -- -- 43
2020-06-28 15:00:00 29.1 9 Norte 23 Norte 0 -- -- 44
2020-06-28 14:00:00 28.1 8 Norte 25 Norte 0 -- -- 46
2020-06-28 13:00:00 26.4 4 Norte 14 Norte 0 -- -- 53
2020-06-28 12:00:00 24.6 7 Norte 15 Norte 0 -- -- 58
2020-06-28 11:00:00 22.7 5 Nordeste 12 Noroeste 0 -- -- 65
2020-06-28 10:00:00 20.7 3 Norte 9 Noroeste 0 -- -- 73
2020-06-28 09:00:00 18.9 3 Norte 8 Nordeste 0 -- -- 81
2020-06-28 08:00:00 17.9 0 Calma 5 Norte 0 -- -- 85
2020-06-28 07:00:00 17.4 0 Calma 4 Oeste 0 -- -- 86
2020-06-28 06:00:00 17.2 0 Calma 6 Sudoeste 0 -- -- 88
2020-06-28 05:00:00 17 4 Oeste 7 Oeste 0 -- -- 87
2020-06-28 04:00:00 16.7 3 Oeste 6 Sudoeste 0 -- -- 87
2020-06-28 03:00:00 15.6 0 Calma 5 Noroeste 0 -- -- 89
2020-06-28 02:00:00 16.2 3 Norte 5 Norte 0 -- -- 85
2020-06-28 01:00:00 17.2 4 Norte 7 Norte 0 -- -- 80
2020-06-28 00:00:00 19.4 4 Este 12 Nordeste 0 -- -- 69
2020-06-27 23:00:00 20.6 5 Este 17 Norte 0 -- -- 66
2020-06-27 22:00:00 22.2 5 Norte 16 Noroeste 0 -- -- 63
2020-06-27 21:00:00 24.1 5 Norte 22 Este 0 -- -- 59
2020-06-27 20:00:00 25.7 10 Este 24 Nordeste 0 -- -- 55
2020-06-27 19:00:00 27.3 8 Nordeste 17 Este 0 -- -- 50
2020-06-27 18:00:00 28.8 8 Norte 21 Noroeste 0 -- -- 43
2020-06-27 17:00:00 29.9 8 Noroeste 25 Oeste 0 -- -- 41
2020-06-27 16:00:00 29.2 14 Noroeste 32 Noroeste 0 -- -- 42
2020-06-27 15:00:00 27.9 15 Oeste 30 Oeste 0 -- -- 43
2020-06-27 14:00:00 27.4 14 Oeste 32 Oeste 0 -- -- 44
2020-06-27 13:00:00 26.4 13 Noroeste 36 Sudoeste 0 -- -- 47
2020-06-27 12:00:00 25.5 17 Oeste 34 Sudoeste 0 -- -- 49
2020-06-27 11:00:00 24.4 10 Oeste 25 Oeste 0 -- -- 53
2020-06-27 10:00:00 21.4 3 Noroeste 7 Noroeste 0 -- -- 66
2020-06-27 09:00:00 18.2 3 Noroeste 8 Noroeste 0 -- -- 76
2020-06-27 08:00:00 16.1 0 Calma 6 Noroeste 0 -- -- 86
2020-06-27 07:00:00 13.8 3 Noroeste 6 Noroeste 0 -- -- 90
2020-06-27 06:00:00 13.3 0 Calma 5 Oeste 0 -- -- 92
2020-06-27 05:00:00 13.4 3 Oeste 6 Oeste 0 -- -- 92
2020-06-27 04:00:00 13.3 2 Noroeste 8 Oeste 0 -- -- 92
2020-06-27 03:00:00 13.8 2 Noroeste 5 Oeste 0 -- -- 93
2020-06-27 02:00:00 14.6 3 Oeste 6 Oeste 0 -- -- 92
2020-06-27 01:00:00 15.3 0 Calma 6 Este 0 -- -- 90
2020-06-27 00:00:00 15.7 3 Norte 9 Nordeste 0 -- -- 87
2020-06-26 23:00:00 17.4 3 Este 14 Nordeste 0 -- -- 84
2020-06-26 22:00:00 17.4 6 Nordeste 23 Nordeste 0 -- -- 84
2020-06-26 21:00:00 18.9 11 Nordeste 29 Norte 0 -- -- 79
2020-06-26 20:00:00 21.5 12 Nordeste 24 Nordeste 0 -- -- 70
2020-06-26 19:00:00 26 9 Este 22 Este 0 -- -- 58
2020-06-26 18:00:00 26.7 8 Este 24 Este 0 -- -- 58
2020-06-26 17:00:00 24.8 17 Norte 34 Norte 0 -- -- 60
2020-06-26 16:00:00 30.7 13 Sudeste 23 Sudeste 0 -- -- 46
2020-06-26 15:00:00 29.4 8 Sudeste 18 Nordeste 0 -- -- 51
2020-06-26 14:00:00 28.1 6 Sudeste 17 Este 0 -- -- 54
2020-06-26 13:00:00 26.5 5 Este 15 Sudeste 0 -- -- 59
2020-06-26 12:00:00 25.3 3 Sudoeste 10 Nordeste 0 -- -- 59
2020-06-26 11:00:00 24 4 Este 10 Nordeste 0 -- -- 62
2020-06-26 10:00:00 22.2 2 Sudoeste 8 Norte 0 -- -- 70
2020-06-26 09:00:00 19.1 4 Oeste 9 Sudoeste 0 -- -- 80
2020-06-26 08:00:00 15.7 5 Oeste 12 Oeste 0 -- -- 92
2020-06-26 07:00:00 14.9 6 Oeste 15 Oeste 0 -- -- 92
2020-06-26 06:00:00 15.2 3 Sudoeste 13 Sudoeste 0 -- -- 93
2020-06-26 05:00:00 15.3 8 Oeste 11 Sudoeste 0 -- -- 92
2020-06-26 04:00:00 15.6 2 Sudoeste 10 Oeste 0 -- -- 92
2020-06-26 03:00:00 15.4 4 Oeste 9 Oeste 0 -- -- 94
2020-06-26 02:00:00 15.7 0 Calma 6 Oeste 0 -- -- 94
2020-06-26 01:00:00 16 0 Calma 6 Norte 0 -- -- 93
2020-06-26 00:00:00 17.6 0 Calma 7 Sudoeste 0 -- -- 86
2020-06-25 23:00:00 18.8 3 Norte 10 Sur 0 -- -- 81
2020-06-25 22:00:00 20.2 5 Este 14 Este 0 -- -- 76
2020-06-25 21:00:00 21.3 0 Calma 13 Este 0 -- -- 73
2020-06-25 20:00:00 21.9 6 Sudeste 25 Este 0 -- -- 76
2020-06-25 19:00:00 22.6 3 Nordeste 14 Nordeste 0 -- -- 77
2020-06-25 18:00:00 23.4 4 Nordeste 14 Nordeste 0 -- -- 69
2020-06-25 17:00:00 26.8 5 Norte 13 Noroeste 0.2 -- -- 61
2020-06-25 16:00:00 24.7 7 Noroeste 23 Noroeste 0.2 -- -- 67
2020-06-25 15:00:00 25.3 12 Noroeste 19 Noroeste 0 -- -- 62
2020-06-25 14:00:00 24.5 4 Sur 29 Este 0 -- -- 63
2020-06-25 13:00:00 24.5 8 Este 24 Sudoeste 0 -- -- 62
2020-06-25 12:00:00 25.1 4 Sudeste 13 Oeste 0 -- -- 58
2020-06-25 11:00:00 27.7 6 Noroeste 14 Norte 0 -- -- 50
2020-06-25 10:00:00 24.5 10 Noroeste 15 Noroeste 0 -- -- 58
2020-06-25 09:00:00 22.3 5 Sudeste 13 Sudeste 0 -- -- 68
2020-06-25 08:00:00 19.3 3 Este 12 Noroeste 0 -- -- 80
2020-06-25 07:00:00 16.5 3 Oeste 7 Oeste 0 -- -- 88
2020-06-25 06:00:00 16.8 3 Oeste 8 Noroeste 0 -- -- 88
2020-06-25 05:00:00 17.7 3 Sudeste 14 Sudeste 0 -- -- 86
2020-06-25 04:00:00 18.2 3 Norte 9 Este 0 -- -- 81
2020-06-25 03:00:00 17.7 0 Calma 8 Oeste 0 -- -- 81
2020-06-25 02:00:00 18.3 4 Noroeste 7 Oeste 0 -- -- 81
2020-06-25 01:00:00 20.2 0 Calma 8 Noroeste 0 -- -- 75
2020-06-25 00:00:00 22.6 3 Nordeste 11 Noroeste 0 -- -- 65
2020-06-24 23:00:00 21.3 6 Noroeste 12 Noroeste 0 -- -- 68
2020-06-24 22:00:00 24.1 3 Noroeste 22 Sudoeste 0 -- -- 57
2020-06-24 21:00:00 26.8 0 Calma 9 Oeste 0 -- -- 49
2020-06-24 20:00:00 30.2 3 Noroeste 15 Noroeste 0 -- -- 40
2020-06-24 19:00:00 30.7 9 Oeste 44 Oeste 0 -- -- 35
2020-06-24 18:00:00 35.5 6 Sur 16 Sur 0 -- -- 31
2020-06-24 17:00:00 34.4 6 Oeste 14 Noroeste 0 -- -- 33
2020-06-24 16:00:00 33.7 4 Este 12 Sudoeste 0 -- -- 35
2020-06-24 15:00:00 30.6 5 Sudeste 14 Sudeste 0 -- -- 44
2020-06-24 14:00:00 27.3 6 Sudeste 25 Sudeste 0 -- -- 55
2020-06-24 13:00:00 28.5 14 Sudeste 23 Sudeste 0 -- -- 53
2020-06-24 12:00:00 27.8 10 Sudeste 21 Sur 0 -- -- 57
2020-06-24 11:00:00 26.1 3 Norte 18 Este 0 -- -- 57
2020-06-24 10:00:00 25.2 4 Este 9 Norte 0 -- -- 62
2020-06-24 09:00:00 21.9 2 Norte 6 Noroeste 0 -- -- 72
2020-06-24 08:00:00 20 2 Noroeste 4 Sudeste 0 -- -- 79
2020-06-24 07:00:00 16.9 2 Oeste 9 Oeste 0 -- -- 88
2020-06-24 06:00:00 16.4 2 Noroeste 12 Oeste 0 -- -- 90
2020-06-24 05:00:00 18 3 Nordeste 11 Este 0 -- -- 84
2020-06-24 04:00:00 19 2 Noroeste 8 Sudoeste 0 -- -- 79
2020-06-24 03:00:00 19.4 2 Oeste 6 Noroeste 0 -- -- 78
2020-06-24 02:00:00 20.2 0 Calma 12 Sudoeste 0 -- -- 74
2020-06-24 01:00:00 21.1 0 Calma 9 Este 0 -- -- 73
2020-06-24 00:00:00 22.3 3 Sudoeste 13 Oeste 0 -- -- 65
2020-06-23 23:00:00 23.9 2 Oeste 12 Noroeste 0 -- -- 59
2020-06-23 22:00:00 27.2 0 Calma 15 Sudeste 0 -- -- 46
2020-06-23 21:00:00 30.7 6 Sudeste 17 Sudeste 0 -- -- 40
2020-06-23 20:00:00 33.5 8 Sudeste 19 Sudeste 0 -- -- 35
2020-06-23 19:00:00 35.7 5 Sudeste 17 Sudeste 0 -- -- 32
2020-06-23 18:00:00 35.9 6 Sudeste 14 Sudeste 0 -- -- 32
2020-06-23 17:00:00 35.4 4 Este 17 Sudeste 0 -- -- 33
2020-06-23 16:00:00 33.4 5 Este 13 Sudeste 0 -- -- 36
2020-06-23 15:00:00 32.4 4 Sudeste 15 Sudeste 0 -- -- 38
2020-06-23 14:00:00 30.4 6 Este 16 Este 0 -- -- 42
2020-06-23 13:00:00 28.3 7 Este 14 Sudeste 0 -- -- 48
2020-06-23 12:00:00 25.6 6 Nordeste 10 Este 0 -- -- 52
2020-06-23 11:00:00 23.6 2 Norte 7 Nordeste 0 -- -- 58
2020-06-23 10:00:00 20.2 3 Oeste 7 Sudoeste 0 -- -- 65
2020-06-23 09:00:00 19.3 2 Noroeste 5 Nordeste 0 -- -- 65
2020-06-23 08:00:00 12.6 3 Noroeste 5 Noroeste 0 -- -- 93
2020-06-23 07:00:00 10.3 0 Calma 3 Norte 0 -- -- 93
2020-06-23 06:00:00 11.2 3 Noroeste 6 Oeste 0 -- -- 91
2020-06-23 05:00:00 11.3 4 Noroeste 6 Oeste 0 -- -- 92
2020-06-23 04:00:00 12.1 3 Oeste 6 Sudoeste 0 -- -- 92
2020-06-23 03:00:00 13.4 3 Noroeste 7 Oeste 0 -- -- 88
2020-06-23 02:00:00 13.9 3 Noroeste 5 Noroeste 0 -- -- 88
2020-06-23 01:00:00 15.3 3 Noroeste 8 Norte 0 -- -- 86
2020-06-23 00:00:00 17.9 2 Norte 6 Noroeste 0 -- -- 80
2020-06-22 23:00:00 19.3 0 Calma 9 Nordeste 0 -- -- 73
2020-06-22 22:00:00 22.5 7 Nordeste 17 Nordeste 0 -- -- 60
2020-06-22 21:00:00 25.2 8 Nordeste 20 Nordeste 0 -- -- 53
2020-06-22 20:00:00 27.6 7 Nordeste 23 Nordeste 0 -- -- 49
2020-06-22 19:00:00 29.2 7 Nordeste 21 Nordeste 0 -- -- 44
2020-06-22 18:00:00 29.4 10 Este 22 Este 0 -- -- 43
2020-06-22 17:00:00 29.2 10 Este 24 Este 0 -- -- 44
2020-06-22 16:00:00 28.6 10 Este 21 Este 0 -- -- 41
2020-06-22 15:00:00 28.1 7 Este 16 Este 0 -- -- 38
2020-06-22 14:00:00 26.8 8 Este 18 Nordeste 0 -- -- 42
2020-06-22 13:00:00 25.3 5 Nordeste 14 Nordeste 0 -- -- 45
2020-06-22 12:00:00 23.7 3 Norte 16 Nordeste 0 -- -- 58
2020-06-22 11:00:00 21.2 4 Norte 14 Nordeste 0 -- -- 65
2020-06-22 10:00:00 19.7 3 Nordeste 9 Nordeste 0 -- -- 72
2020-06-22 09:00:00 20.7 3 Norte 6 Noroeste 0 -- -- 71
2020-06-22 08:00:00 16 4 Noroeste 5 Noroeste 0 -- -- 90
2020-06-22 07:00:00 14.4 3 Noroeste -- -- 0 -- -- 91
2020-06-22 06:00:00 16.1 0 Calma 7 Sudeste 0 -- -- 86
2020-06-22 05:00:00 16.5 6 Sudeste 9 Sudeste 0 -- -- 85
2020-06-22 04:00:00 17.2 2 Norte 8 Nordeste 0 -- -- 81
2020-06-22 03:00:00 17.3 3 Este 12 Nordeste 0 -- -- 80
2020-06-22 02:00:00 17.4 8 Nordeste 12 Nordeste 0 -- -- 80
2020-06-22 01:00:00 17.1 2 Norte 6 Nordeste 0 -- -- 79
2020-06-22 00:00:00 17.2 3 Norte 10 Este 0 -- -- 76
2020-06-21 23:00:00 17.5 5 Nordeste 19 Nordeste 0 -- -- 74
2020-06-21 22:00:00 18.6 10 Nordeste 23 Nordeste 0 -- -- 69
2020-06-21 21:00:00 20.3 13 Nordeste 32 Nordeste 0 -- -- 64
2020-06-21 20:00:00 22.2 15 Nordeste 32 Nordeste 0 -- -- 57
2020-06-21 19:00:00 24.4 14 Nordeste 30 Este 0 -- -- 53
2020-06-21 18:00:00 26.6 12 Nordeste 28 Este 0 -- -- 47
2020-06-21 17:00:00 28.6 11 Nordeste 26 Nordeste 0 -- -- 44
2020-06-21 16:00:00 28.6 8 Nordeste 19 Nordeste 0 -- -- 43
2020-06-21 15:00:00 28.4 6 Norte 17 Norte 0 -- -- 42
2020-06-21 14:00:00 27.5 6 Norte 21 Nordeste 0 -- -- 45
2020-06-21 13:00:00 26.1 6 Este 13 Este 0 -- -- 46
2020-06-21 12:00:00 24.9 4 Sudeste 9 Sudeste 0 -- -- 47
2020-06-21 11:00:00 23.4 3 Sudeste 8 Noroeste 0 -- -- 52
2020-06-21 10:00:00 19.8 3 Norte 8 Noroeste 0 -- -- 61
2020-06-21 09:00:00 16.6 3 Oeste 8 Noroeste 0 -- -- 73
2020-06-21 08:00:00 12.3 4 Oeste 6 Sudoeste 0 -- -- 92
2020-06-21 07:00:00 10.2 0 Calma 4 Noroeste 0 -- -- 94
2020-06-21 06:00:00 10.8 3 Noroeste 7 Sudoeste 0 -- -- 91
2020-06-21 05:00:00 11.2 2 Noroeste 6 Noroeste 0 -- -- 92
2020-06-21 04:00:00 12 0 Calma 6 Sudoeste -- -- -- 90
2020-06-21 03:00:00 12.8 3 Oeste 6 Oeste 0 -- -- 86
2020-06-21 02:00:00 14.3 3 Noroeste 6 Oeste 0 -- -- 80
2020-06-21 01:00:00 15.4 0 Calma 6 Norte 0 -- -- 77
2020-06-21 00:00:00 15.9 0 Calma 8 Norte 0 -- -- 80
2020-06-20 23:00:00 17.7 0 Calma 12 Nordeste 0 -- -- 71
2020-06-20 22:00:00 20 5 Nordeste 13 Nordeste 0 -- -- 66
2020-06-20 21:00:00 22.6 5 Norte 20 Nordeste 0 -- -- 61
2020-06-20 20:00:00 25.2 10 Nordeste 25 Nordeste 0 -- -- 55
2020-06-20 19:00:00 27.1 13 Nordeste 27 Este 0 -- -- 48
2020-06-20 18:00:00 28.7 12 Nordeste 27 Nordeste 0 -- -- 40
2020-06-20 17:00:00 30.1 5 Este 18 Nordeste 0 -- -- 34
2020-06-20 16:00:00 29.1 7 Norte 16 Noroeste 0 -- -- 38
2020-06-20 15:00:00 27.5 5 Norte 17 Noroeste 0 -- -- 39
2020-06-20 14:00:00 25.8 4 Sudeste 9 Sudeste 0 -- -- 42
2020-06-20 13:00:00 23.6 5 Sudeste 12 Sudeste 0 -- -- 48
2020-06-20 12:00:00 22.7 3 Este 9 Este 0 -- -- 47
2020-06-20 11:00:00 19.6 3 Noroeste 10 Norte 0 -- -- 58
2020-06-20 10:00:00 17.9 3 Noroeste 8 Norte 0 -- -- 64
2020-06-20 09:00:00 15 4 Oeste 6 Oeste 0 -- -- 72
2020-06-20 08:00:00 11.1 3 Noroeste 6 Noroeste 0 -- -- 90
2020-06-20 07:00:00 9.2 3 Oeste 7 Oeste 0 -- -- 91
2020-06-20 06:00:00 9.5 3 Oeste 7 Sudoeste 0 -- -- 91
2020-06-20 05:00:00 9.7 4 Noroeste 7 Oeste 0 -- -- 92
2020-06-20 04:00:00 11.2 5 Sudoeste 10 Oeste 0 -- -- 90
2020-06-20 03:00:00 11.6 4 Oeste 7 Oeste 0 -- -- 90
2020-06-20 02:00:00 12.3 2 Noroeste 5 Oeste 0 -- -- 89
2020-06-20 01:00:00 13.2 0 Calma 7 Norte 0 -- -- 86
2020-06-20 00:00:00 13.5 0 Calma 3 Norte 0 -- -- 87
2020-06-19 23:00:00 14.6 3 Norte 15 Nordeste 0 -- -- 82
2020-06-19 22:00:00 16.3 3 Norte 19 Nordeste 0 -- -- 77
2020-06-19 21:00:00 18.3 6 Norte 24 Nordeste 0 -- -- 70
2020-06-19 20:00:00 21 12 Nordeste 22 Nordeste 0 -- -- 63
2020-06-19 19:00:00 22.8 11 Nordeste 31 Nordeste 0 -- -- 57
2020-06-19 18:00:00 24.1 9 Norte 25 Nordeste 0 -- -- 55
2020-06-19 17:00:00 25.2 8 Norte 26 Nordeste 0 -- -- 53
2020-06-19 16:00:00 26 9 Nordeste 20 Nordeste 0 -- -- 48
2020-06-19 15:00:00 25.7 7 Norte 18 Noroeste 0 -- -- 43
2020-06-19 14:00:00 24.6 4 Noroeste 13 Noroeste 0 -- -- 44
2020-06-19 13:00:00 23.2 4 Sudeste 13 Sur 0 -- -- 48
2020-06-19 12:00:00 21 4 Sudeste 9 Sudeste 0 -- -- 54
2020-06-19 11:00:00 19.1 4 Norte 10 Nordeste 0 -- -- 61
2020-06-19 10:00:00 17.8 4 Noroeste 8 Noroeste 0 -- -- 63
2020-06-19 09:00:00 14.9 4 Oeste 8 Oeste 0 -- -- 73
2020-06-19 08:00:00 11.6 4 Oeste 8 Sudoeste 0 -- -- 88
2020-06-19 07:00:00 9.8 4 Oeste 9 Oeste 0 -- -- 94
2020-06-19 06:00:00 10 2 Noroeste 5 Sudoeste 0 -- -- 93
2020-06-19 05:00:00 11.2 2 Oeste 6 Sudoeste 0 -- -- 91
2020-06-19 04:00:00 12.8 2 Oeste 4 Norte 0 -- -- 85
2020-06-19 03:00:00 12.8 3 Noroeste 5 Noroeste 0 -- -- 86
2020-06-19 02:00:00 13 0 Calma 3 Noroeste 0 -- -- 84
2020-06-19 01:00:00 14 0 Calma 5 Norte 0 -- -- 80
2020-06-19 00:00:00 13.9 3 Norte 10 Nordeste 0 -- -- 79
2020-06-18 23:00:00 13.9 3 Nordeste 9 Norte 0 -- -- 80
2020-06-18 22:00:00 14.6 4 Norte 24 Nordeste 0 -- -- 75
2020-06-18 21:00:00 16.9 10 Nordeste 19 Nordeste 0 -- -- 69
2020-06-18 20:00:00 19.3 8 Norte 22 Nordeste 0 -- -- 63
2020-06-18 19:00:00 20.8 9 Nordeste 28 Nordeste 0 -- -- 58
2020-06-18 18:00:00 22.5 9 Nordeste 25 Nordeste 0 -- -- 52
2020-06-18 17:00:00 23.2 5 Norte 17 Este 0 -- -- 48
2020-06-18 16:00:00 20.9 5 Norte 15 Este 0 -- -- 54
2020-06-18 15:00:00 20.3 5 Nordeste 16 Nordeste 0 -- -- 54
2020-06-18 14:00:00 19.6 8 Este 15 Nordeste 0 -- -- 57
2020-06-18 13:00:00 18.5 6 Noroeste 14 Norte 0 -- -- 63
2020-06-18 12:00:00 18.2 6 Nordeste 15 Norte 0 -- -- 64
2020-06-18 11:00:00 16.4 5 Este 10 Nordeste 0 -- -- 73
2020-06-18 10:00:00 14.8 3 Este 8 Nordeste 0 -- -- 77
2020-06-18 09:00:00 14.9 3 Norte 6 Nordeste 0 -- -- 82
2020-06-18 08:00:00 12.2 0 Calma 6 Sudeste 0 -- -- 95
2020-06-18 07:00:00 11.6 0 Calma 8 Este 1.2 -- -- 95
2020-06-18 06:00:00 11.6 2 Sudeste 8 Norte 0.6 -- -- 94
2020-06-18 05:00:00 12.1 4 Este 8 Este 0 -- -- 92
2020-06-18 04:00:00 12.2 0 Calma 8 Noroeste 0.4 -- -- 91
2020-06-18 03:00:00 12.5 4 Nordeste 10 Nordeste 0.2 -- -- 87
2020-06-18 02:00:00 12.9 2 Norte 12 Nordeste 0 -- -- 83
2020-06-18 01:00:00 13 6 Nordeste 10 Nordeste 0 -- -- 83
2020-06-18 00:00:00 13.3 6 Este 13 Este 0 -- -- 81
2020-06-17 23:00:00 13.5 5 Nordeste 14 Nordeste 0 -- -- 82
2020-06-17 22:00:00 14 6 Nordeste 12 Nordeste 0 -- -- 79
2020-06-17 21:00:00 15.2 5 Nordeste 22 Nordeste 0 -- -- 75
2020-06-17 20:00:00 16 12 Nordeste 28 Nordeste 0 -- -- 71
2020-06-17 19:00:00 17.8 14 Nordeste 30 Nordeste 0 -- -- 64
2020-06-17 18:00:00 18.6 11 Norte 27 Norte 0 -- -- 63
2020-06-17 17:00:00 19.1 10 Nordeste 23 Nordeste 0 -- -- 56
2020-06-17 16:00:00 17.2 13 Nordeste 29 Nordeste 0 -- -- 63
2020-06-17 15:00:00 19.6 6 Norte 25 Norte 0 -- -- 54
2020-06-17 14:00:00 19.4 5 Oeste 14 Oeste 0 -- -- 53
2020-06-17 13:00:00 18.7 5 Sur 10 Este 0 -- -- 62
2020-06-17 12:00:00 17.5 5 Sudoeste 12 Sudoeste 0 -- -- 61
2020-06-17 11:00:00 17.8 5 Nordeste 11 Nordeste 0 -- -- 63
2020-06-17 10:00:00 15.8 0 Calma 6 Noroeste 0 -- -- 73
2020-06-17 09:00:00 13.6 3 Noroeste 6 Oeste 0 -- -- 87
2020-06-17 08:00:00 12.3 4 Noroeste 6 Oeste 0 -- -- 94
2020-06-17 07:00:00 11.6 0 Calma 4 Sudeste 0 -- -- 95
2020-06-17 06:00:00 11.7 3 Sudeste 5 Sudeste 0 -- -- 94
2020-06-17 05:00:00 12.1 0 Calma 3 Norte 0 -- -- 94
2020-06-17 04:00:00 12 0 Calma 7 Sudeste 0 -- -- 93
2020-06-17 03:00:00 12.2 2 Sur 8 Oeste 0 -- -- 92
2020-06-17 02:00:00 12.5 0 Calma 7 Sudeste 0 -- -- 92
2020-06-17 01:00:00 12.5 2 Sudeste 10 Este 0 -- -- 92
2020-06-17 00:00:00 12.8 3 Sudeste 12 Este 0.4 -- -- 90
2020-06-16 23:00:00 13.1 5 Este 13 Este 0 -- -- 87
2020-06-16 22:00:00 13.4 5 Este 14 Este 0 -- -- 86
2020-06-16 21:00:00 13.8 6 Nordeste 14 Este 0.8 -- -- 86
2020-06-16 20:00:00 14.1 5 Este 17 Nordeste 0.2 -- -- 87
2020-06-16 19:00:00 14.2 10 Nordeste 25 Nordeste 0 -- -- 87
2020-06-16 18:00:00 16.5 6 Nordeste 14 Norte 1.2 -- -- 87
2020-06-16 17:00:00 14.6 6 Noroeste 17 Sudeste 0.2 -- -- 94
2020-06-16 16:00:00 13.3 4 Nordeste 47 Noroeste 10 -- -- 95
2020-06-16 15:00:00 19.8 8 Norte 37 Oeste 0 -- -- 64
2020-06-16 14:00:00 21.3 12 Oeste 25 Sudoeste 0 -- -- 49
2020-06-16 13:00:00 20.5 10 Noroeste 19 Oeste 0 -- -- 56
2020-06-16 12:00:00 21.4 4 Sudeste 12 Norte 0 -- -- 55
2020-06-16 11:00:00 19.5 4 Oeste 9 Este 0 -- -- 60
2020-06-16 10:00:00 17.4 3 Nordeste 9 Nordeste 0 -- -- 68
2020-06-16 09:00:00 14.7 4 Noroeste 8 Noroeste 0 -- -- 79
2020-06-16 08:00:00 14 3 Noroeste 5 Noroeste 0 -- -- 82
2020-06-16 07:00:00 12.7 2 Noroeste 9 Nordeste 0 -- -- 87
2020-06-16 06:00:00 13.6 4 Este 7 Nordeste 0 -- -- 82
2020-06-16 05:00:00 13.7 2 Norte 6 Nordeste 0 -- -- 84
2020-06-16 04:00:00 14 0 Calma 8 Este 0 -- -- 81
2020-06-16 03:00:00 14.2 2 Nordeste 5 Norte 0 -- -- 79
2020-06-16 02:00:00 14.3 3 Nordeste 7 Este 0 -- -- 78
2020-06-16 01:00:00 14.2 2 Norte 9 Este 0 -- -- 79
2020-06-16 00:00:00 14.5 5 Nordeste 13 Nordeste 0 -- -- 75
2020-06-15 23:00:00 15 6 Nordeste 16 Nordeste 0 -- -- 73
2020-06-15 22:00:00 15.8 4 Nordeste 15 Nordeste 0 -- -- 71
2020-06-15 21:00:00 17.3 6 Nordeste 29 Nordeste 0 -- -- 67
2020-06-15 20:00:00 19.3 14 Nordeste 29 Este 0 -- -- 61
2020-06-15 19:00:00 21.1 9 Este 22 Nordeste 0 -- -- 55
2020-06-15 18:00:00 21.3 11 Nordeste 22 Nordeste 0 -- -- 55
2020-06-15 17:00:00 23.4 5 Nordeste 19 Nordeste 0 -- -- 49
2020-06-15 16:00:00 21.8 8 Nordeste 17 Nordeste 0 -- -- 53
2020-06-15 15:00:00 22.2 4 Sudeste 13 Nordeste 0 -- -- 48
2020-06-15 14:00:00 21 4 Norte 17 Noroeste 0 -- -- 50
2020-06-15 13:00:00 21.2 7 Noroeste 22 Oeste 0 -- -- 51
2020-06-15 12:00:00 20.7 13 Oeste 26 Oeste 0 -- -- 51
2020-06-15 11:00:00 20 5 Sur 12 Noroeste 0 -- -- 57
2020-06-15 10:00:00 18.5 4 Este 9 Este 0 -- -- 62
2020-06-15 09:00:00 13.9 3 Oeste 5 Oeste 0 -- -- 78
2020-06-15 08:00:00 12.6 3 Oeste 7 Oeste 0 -- -- 85
2020-06-15 07:00:00 11.5 3 Oeste 5 Noroeste 0 -- -- 91
2020-06-15 06:00:00 12.4 3 Oeste 6 Sudoeste 0 -- -- 86
2020-06-15 05:00:00 12.9 3 Nordeste 9 Norte 0 -- -- 82
2020-06-15 04:00:00 13.3 4 Nordeste 9 Nordeste 0 -- -- 79
2020-06-15 03:00:00 13.3 0 Calma 8 Nordeste 0 -- -- 80
2020-06-15 02:00:00 13.7 4 Nordeste 9 Nordeste 0 -- -- 75
2020-06-15 01:00:00 13.5 3 Norte 9 Norte 0 -- -- 78
2020-06-15 00:00:00 14.2 4 Nordeste 10 Nordeste 0 -- -- 72